createdAt,value
2018-07-05T00:00:35.563Z,7.60
2018-07-05T00:03:15.197Z,8.17
2018-07-05T00:05:54.742Z,8.43
2018-07-05T00:08:28.373Z,7.73
2018-07-05T00:11:08.263Z,9.07
2018-07-05T00:13:47.910Z,8.43
2018-07-05T00:16:27.596Z,7.93
2018-07-05T00:19:07.146Z,8.10
2018-07-05T00:21:46.758Z,8.13
2018-07-05T00:24:26.299Z,9.33
2018-07-05T00:27:06.479Z,8.70
2018-07-05T00:29:46.170Z,8.00
2018-07-05T00:32:25.762Z,8.90
2018-07-05T00:35:05.478Z,9.33
2018-07-05T00:37:45.247Z,8.60
2018-07-05T00:40:24.831Z,8.77
2018-07-05T00:43:04.568Z,7.63
2018-07-05T00:45:44.159Z,8.23
2018-07-05T00:48:23.769Z,8.00
2018-07-05T00:51:03.430Z,9.00
2018-07-05T00:53:43.224Z,8.87
2018-07-05T00:56:16.911Z,8.50
2018-07-05T00:58:57.742Z,9.20
2018-07-05T01:01:37.360Z,9.10
2018-07-05T01:04:17.003Z,9.40
2018-07-05T01:06:56.621Z,10.10
2018-07-05T01:09:30.483Z,10.90
2018-07-05T01:12:10.206Z,11.40
2018-07-05T01:14:50.377Z,11.03
2018-07-05T01:17:29.950Z,9.67
2018-07-05T01:20:09.861Z,11.40
2018-07-05T01:22:49.515Z,11.83
2018-07-05T01:25:29.120Z,11.03
2018-07-05T01:28:08.721Z,10.30
2018-07-05T01:30:48.294Z,10.83
2018-07-05T01:33:27.905Z,10.40
2018-07-05T01:36:07.486Z,9.67
2018-07-05T01:38:47.213Z,10.53
2018-07-05T01:41:26.713Z,10.10
2018-07-05T01:44:06.265Z,10.47
2018-07-05T01:46:45.854Z,11.17
2018-07-05T01:49:19.764Z,10.77
2018-07-05T01:51:59.712Z,10.50
2018-07-05T01:54:33.337Z,10.10
2018-07-05T01:57:13.116Z,10.07
2018-07-05T01:59:52.691Z,9.80
2018-07-05T02:02:32.358Z,9.93
2018-07-05T02:05:12.007Z,9.37
2018-07-05T02:07:45.645Z,9.10
2018-07-05T02:10:25.397Z,8.10
2018-07-05T02:13:05.006Z,9.10
2018-07-05T02:15:44.602Z,9.10
2018-07-05T02:18:24.355Z,9.80
2018-07-05T02:21:04.113Z,9.23
2018-07-05T02:23:43.816Z,8.57
2018-07-05T02:26:23.554Z,8.77
2018-07-05T02:29:03.294Z,9.30
2018-07-05T02:31:42.913Z,8.20
2018-07-05T02:34:22.730Z,9.47
2018-07-05T02:37:02.337Z,8.23
2018-07-05T02:39:50.234Z,7.10
2018-07-05T02:42:23.811Z,7.30
2018-07-05T02:45:03.499Z,6.80
2018-07-05T02:47:43.230Z,7.00
2018-07-05T02:50:16.938Z,7.07
2018-07-05T02:52:56.981Z,6.90
2018-07-05T02:55:30.709Z,7.10
2018-07-05T02:58:10.410Z,7.87
2018-07-05T03:00:50.007Z,6.77
2018-07-05T03:03:29.577Z,7.03
2018-07-05T03:06:09.327Z,6.30
2018-07-05T03:08:48.945Z,7.07
2018-07-05T03:11:28.630Z,6.67
2018-07-05T03:14:08.467Z,6.97
2018-07-05T03:16:48.044Z,6.80
2018-07-05T03:19:27.801Z,6.57
2018-07-05T03:22:02.432Z,7.83
2018-07-05T03:24:42.054Z,7.90
2018-07-05T03:27:21.608Z,8.33
2018-07-05T03:29:55.308Z,7.60
2018-07-05T03:32:35.221Z,8.20
2018-07-05T03:35:14.838Z,8.50
2018-07-05T03:37:54.474Z,7.97
2018-07-05T03:40:34.261Z,8.43
2018-07-05T03:43:13.892Z,7.07
2018-07-05T03:45:53.542Z,7.60
2018-07-05T03:48:33.164Z,7.10
2018-07-05T03:51:12.926Z,8.23
2018-07-05T03:53:52.575Z,9.10
2018-07-05T03:56:32.305Z,8.70
2018-07-05T03:59:15.595Z,8.43
2018-07-05T04:01:55.233Z,8.80
2018-07-05T04:04:28.907Z,8.20
2018-07-05T04:07:08.670Z,8.57
2018-07-05T04:09:48.486Z,10.07
2018-07-05T04:12:28.101Z,9.53
2018-07-05T04:15:07.677Z,8.97
2018-07-05T04:17:47.467Z,10.80
2018-07-05T04:20:21.101Z,9.00
2018-07-05T04:23:00.854Z,9.50
2018-07-05T04:25:40.650Z,11.10
2018-07-05T04:28:20.271Z,10.20
2018-07-05T04:30:59.867Z,10.80
2018-07-05T04:33:39.579Z,10.70
2018-07-05T04:36:19.129Z,10.90
2018-07-05T04:38:58.744Z,8.60
2018-07-05T04:41:38.426Z,9.00
2018-07-05T04:44:18.178Z,9.40
2018-07-05T04:46:57.767Z,7.40
2018-07-05T04:49:37.466Z,7.07
2018-07-05T04:52:17.146Z,7.83
2018-07-05T04:54:56.685Z,7.07
2018-07-05T04:57:36.454Z,7.50
2018-07-05T05:00:16.018Z,6.93
2018-07-05T05:02:55.591Z,6.70
2018-07-05T05:05:35.170Z,7.30
2018-07-05T05:08:14.840Z,6.93
2018-07-05T05:10:54.482Z,5.60
2018-07-05T05:13:34.126Z,5.90
2018-07-05T05:16:13.906Z,5.03
2018-07-05T05:18:47.724Z,4.60
2018-07-05T05:21:27.577Z,5.40
2018-07-05T05:24:07.335Z,4.80
2018-07-05T05:26:53.060Z,5.20
2018-07-05T05:29:33.062Z,6.20
2018-07-05T05:32:12.891Z,6.70
2018-07-05T05:34:52.615Z,6.00
2018-07-05T05:37:32.939Z,7.30
2018-07-05T05:40:12.653Z,7.13
2018-07-05T05:42:52.338Z,9.90
2018-07-05T05:45:32.218Z,8.50
2018-07-05T05:48:12.091Z,8.87
2018-07-05T05:50:51.822Z,9.57
2018-07-05T05:53:31.709Z,11.90
2018-07-05T05:56:12.288Z,9.93
2018-07-05T05:58:52.330Z,10.57
2018-07-05T06:01:32.037Z,10.40
2018-07-05T06:04:11.724Z,10.30
2018-07-05T06:06:51.353Z,10.10
2018-07-05T06:09:31.127Z,9.97
2018-07-05T06:12:11.033Z,10.10
2018-07-05T06:14:51.048Z,10.47
2018-07-05T06:17:30.796Z,10.80
2018-07-05T06:20:10.979Z,9.57
2018-07-05T06:22:44.692Z,10.03
2018-07-05T06:25:25.710Z,9.47
2018-07-05T06:28:05.371Z,9.53
2018-07-05T06:30:45.039Z,9.40
2018-07-05T06:33:24.989Z,9.43
2018-07-05T06:36:04.693Z,9.57
2018-07-05T06:38:44.502Z,9.00
2018-07-05T06:41:24.181Z,9.63
2018-07-05T06:44:04.110Z,8.73
2018-07-05T06:46:43.966Z,7.93
2018-07-05T06:49:23.891Z,8.07
2018-07-05T06:52:03.439Z,7.63
2018-07-05T06:54:43.391Z,6.00
2018-07-05T06:57:23.372Z,5.97
2018-07-05T07:00:03.232Z,5.13
2018-07-05T07:02:43.050Z,5.00
2018-07-05T07:05:23.476Z,4.93
2018-07-05T07:08:03.538Z,4.60
2018-07-05T07:10:43.252Z,4.50
2018-07-05T07:13:23.100Z,4.10
2018-07-05T07:16:02.874Z,3.70
2018-07-05T07:18:42.599Z,4.17
2018-07-05T07:21:22.434Z,3.27
2018-07-05T07:24:02.054Z,3.53
2018-07-05T07:26:41.762Z,3.53
2018-07-05T07:29:15.655Z,3.40
2018-07-05T07:31:55.595Z,3.90
2018-07-05T07:34:35.203Z,4.60
2018-07-05T07:37:14.743Z,3.83
2018-07-05T07:39:54.619Z,4.17
2018-07-05T07:42:22.149Z,3.70
2018-07-05T07:44:49.808Z,3.60
2018-07-05T07:47:17.270Z,4.00
2018-07-05T07:49:44.684Z,4.37
2018-07-05T07:52:12.399Z,4.20
2018-07-05T07:54:39.850Z,3.13
2018-07-05T07:57:07.275Z,3.90
2018-07-05T07:59:34.690Z,3.43
2018-07-05T08:02:02.102Z,3.37
2018-07-05T08:04:29.775Z,3.33
2018-07-05T08:06:57.185Z,3.73
2018-07-05T08:09:24.605Z,2.93
2018-07-05T08:11:52.032Z,3.00
2018-07-05T08:14:19.718Z,3.13
2018-07-05T08:16:47.158Z,3.10
2018-07-05T08:19:14.785Z,3.43
2018-07-05T08:21:42.227Z,2.77
2018-07-05T08:24:09.623Z,3.03
2018-07-05T08:26:37.047Z,2.27
2018-07-05T08:29:04.434Z,3.40
2018-07-05T08:31:31.832Z,2.50
2018-07-05T08:33:59.239Z,2.20
2018-07-05T08:36:26.692Z,2.43
2018-07-05T08:38:54.133Z,2.77
2018-07-05T08:41:21.579Z,2.97
2018-07-05T08:43:49.040Z,3.70
2018-07-05T08:46:16.498Z,3.03
2018-07-05T08:48:43.869Z,3.63
2018-07-05T08:51:11.329Z,3.53
2018-07-05T08:53:38.907Z,3.87
2018-07-05T08:56:06.319Z,3.30
2018-07-05T08:58:33.783Z,3.97
2018-07-05T09:01:01.162Z,3.80
2018-07-05T09:03:28.844Z,3.73
2018-07-05T09:05:56.228Z,3.20
2018-07-05T09:08:23.635Z,3.23
2018-07-05T09:10:51.087Z,2.70
2018-07-05T09:13:18.516Z,2.73
2018-07-05T09:15:45.894Z,2.80
2018-07-05T09:18:13.326Z,3.03
2018-07-05T09:20:40.775Z,3.07
2018-07-05T09:23:08.230Z,2.70
2018-07-05T09:25:35.701Z,2.60
2018-07-05T09:28:03.551Z,3.33
2018-07-05T09:30:31.064Z,4.00
2018-07-05T09:32:58.478Z,2.77
2018-07-05T09:35:25.924Z,2.80
2018-07-05T09:37:53.324Z,2.90
2018-07-05T09:40:20.794Z,3.60
2018-07-05T09:42:48.947Z,2.67
2018-07-05T09:45:16.367Z,3.40
2018-07-05T09:47:44.082Z,2.93
2018-07-05T09:50:11.520Z,3.10
2018-07-05T09:52:39.139Z,3.53
2018-07-05T09:55:06.563Z,2.80
2018-07-05T09:57:33.959Z,3.50
2018-07-05T10:00:01.479Z,2.93
2018-07-05T10:02:28.871Z,2.90
2018-07-05T10:04:56.367Z,2.60
2018-07-05T10:07:23.778Z,2.83
2018-07-05T10:09:51.357Z,2.80
2018-07-05T10:12:18.858Z,2.40
2018-07-05T10:14:46.446Z,2.50
2018-07-05T10:17:13.872Z,2.13
2018-07-05T10:19:41.331Z,2.50
2018-07-05T10:22:08.772Z,2.60
2018-07-05T10:24:36.208Z,2.60
2018-07-05T10:27:04.085Z,2.70
2018-07-05T10:29:44.324Z,3.63
2018-07-05T10:32:18.234Z,2.90
2018-07-05T10:34:45.767Z,2.77
2018-07-05T10:37:17.352Z,2.77
2018-07-05T10:40:01.065Z,3.37
2018-07-05T10:42:43.347Z,3.80
2018-07-05T10:45:23.127Z,4.00
2018-07-05T10:48:02.900Z,3.40
2018-07-05T10:50:36.840Z,3.30
2018-07-05T10:53:17.276Z,3.57
2018-07-05T10:55:57.020Z,3.33
2018-07-05T10:58:36.916Z,3.60
2018-07-05T11:01:16.800Z,3.50
2018-07-05T11:03:56.548Z,3.47
2018-07-05T11:06:36.409Z,4.30
2018-07-05T11:09:10.306Z,4.10
2018-07-05T11:11:50.554Z,3.63
2018-07-05T11:14:30.361Z,3.57
2018-07-05T11:17:10.315Z,3.80
2018-07-05T11:19:50.155Z,4.33
2018-07-05T11:22:30.188Z,3.37
2018-07-05T11:25:10.675Z,4.50
2018-07-05T11:27:50.991Z,3.70
2018-07-05T11:30:31.320Z,4.00
2018-07-05T11:33:11.338Z,4.50
2018-07-05T11:35:51.903Z,3.80
2018-07-05T11:38:31.827Z,4.13
2018-07-05T11:41:11.411Z,4.40
2018-07-05T11:43:51.215Z,5.33
2018-07-05T11:46:31.239Z,4.90
2018-07-05T11:49:11.024Z,5.30
2018-07-05T11:51:50.913Z,5.00
2018-07-05T11:54:30.598Z,4.63
2018-07-05T11:57:10.794Z,4.30
2018-07-05T11:59:51.681Z,4.60
2018-07-05T12:02:31.316Z,4.57
2018-07-05T12:05:11.065Z,5.20
2018-07-05T12:07:50.659Z,5.00
2018-07-05T12:10:30.350Z,5.23
2018-07-05T12:13:10.174Z,5.87
2018-07-05T12:15:50.351Z,5.83
2018-07-05T12:18:29.950Z,6.70
2018-07-05T12:21:09.603Z,7.00
2018-07-05T12:23:49.099Z,6.53
2018-07-05T12:26:28.793Z,6.07
2018-07-05T12:29:09.266Z,7.10
2018-07-05T12:31:49.224Z,6.17
2018-07-05T12:34:22.863Z,6.60
2018-07-05T12:37:02.586Z,6.73
2018-07-05T12:39:42.318Z,7.10
2018-07-05T12:42:22.020Z,7.87
2018-07-05T12:45:01.706Z,7.90
2018-07-05T12:47:41.346Z,7.60
2018-07-05T12:50:14.937Z,7.53
2018-07-05T12:52:54.554Z,6.80
2018-07-05T12:55:34.774Z,8.27
2018-07-05T12:58:14.590Z,7.27
2018-07-05T13:00:55.228Z,7.60
2018-07-05T13:03:35.239Z,8.20
2018-07-05T13:06:14.793Z,8.47
2018-07-05T13:08:55.646Z,9.00
2018-07-05T13:11:35.344Z,9.07
2018-07-05T13:14:14.855Z,8.90
2018-07-05T13:16:54.531Z,8.53
2018-07-05T13:19:34.271Z,9.33
2018-07-05T13:22:14.078Z,8.90
2018-07-05T13:24:53.741Z,9.23
2018-07-05T13:27:33.434Z,9.30
2018-07-05T13:30:13.182Z,9.93
2018-07-05T13:32:53.000Z,8.90
2018-07-05T13:35:32.864Z,7.50
2018-07-05T13:38:12.484Z,8.50
2018-07-05T13:40:52.142Z,9.80
2018-07-05T13:43:31.844Z,7.90
2018-07-05T13:46:11.694Z,7.53
2018-07-05T13:48:51.427Z,8.20
2018-07-05T13:51:31.372Z,9.40
2018-07-05T13:54:11.118Z,10.00
2018-07-05T13:56:44.915Z,10.47
2018-07-05T13:59:18.486Z,8.80
2018-07-05T14:01:58.250Z,8.60
2018-07-05T14:04:38.940Z,6.97
2018-07-05T14:07:12.806Z,8.77
2018-07-05T14:09:52.614Z,8.83
2018-07-05T14:12:32.538Z,8.80
2018-07-05T14:15:12.175Z,8.83
2018-07-05T14:17:51.821Z,9.93
2018-07-05T14:20:31.653Z,9.00
2018-07-05T14:23:11.249Z,8.80
2018-07-05T14:25:50.973Z,12.17
2018-07-05T14:28:30.735Z,11.70
2018-07-05T14:31:04.410Z,10.57
2018-07-05T14:33:44.142Z,8.77
2018-07-05T14:36:23.732Z,7.47
2018-07-05T14:39:04.444Z,7.30
2018-07-05T14:41:44.197Z,7.30
2018-07-05T14:44:25.013Z,7.37
2018-07-05T14:47:04.894Z,6.00
2018-07-05T14:49:45.331Z,6.50
2018-07-05T14:52:24.983Z,7.40
2018-07-05T14:55:04.887Z,7.33
2018-07-05T14:57:44.862Z,6.20
2018-07-05T15:00:24.795Z,7.17
2018-07-05T15:02:58.526Z,7.17
2018-07-05T15:05:38.276Z,6.73
2018-07-05T15:08:18.004Z,7.80
2018-07-05T15:10:57.841Z,6.90
2018-07-05T15:13:37.410Z,7.57
2018-07-05T15:16:16.962Z,6.60
2018-07-05T15:18:56.769Z,6.67
2018-07-05T15:21:36.477Z,7.03
2018-07-05T15:24:16.342Z,6.50
2018-07-05T15:26:56.029Z,7.70
2018-07-05T15:29:35.835Z,7.27
2018-07-05T15:32:15.673Z,6.40
2018-07-05T15:34:55.438Z,7.00
2018-07-05T15:37:35.102Z,6.57
2018-07-05T15:40:14.736Z,6.60
2018-07-05T15:42:54.477Z,7.07
2018-07-05T15:45:34.572Z,6.10
2018-07-05T15:48:14.650Z,8.00
2018-07-05T15:50:54.314Z,8.20
2018-07-05T15:53:33.773Z,7.00
2018-07-05T15:56:14.371Z,7.13
2018-07-05T15:58:53.986Z,7.77
2018-07-05T16:01:33.766Z,7.77
2018-07-05T16:04:13.365Z,7.33
2018-07-05T16:06:52.982Z,7.40
2018-07-05T16:09:32.787Z,7.23
2018-07-05T16:12:13.645Z,7.10
2018-07-05T16:14:53.307Z,7.80
2018-07-05T16:17:32.874Z,8.77
2018-07-05T16:20:13.019Z,6.93
2018-07-05T16:22:52.641Z,6.80
2018-07-05T16:25:26.559Z,6.70
2018-07-05T16:28:06.487Z,7.80
2018-07-05T16:30:46.418Z,7.33
2018-07-05T16:33:26.392Z,6.70
2018-07-05T16:36:06.302Z,7.00
2018-07-05T16:38:46.300Z,7.30
2018-07-05T16:41:22.114Z,7.23
2018-07-05T16:44:02.142Z,7.30
2018-07-05T16:46:42.146Z,8.23
2018-07-05T16:49:22.089Z,6.70
2018-07-05T16:52:01.980Z,7.57
2018-07-05T16:54:41.839Z,7.80
2018-07-05T16:57:21.410Z,6.73
2018-07-05T17:00:01.139Z,6.70
2018-07-05T17:02:41.045Z,7.53
2018-07-05T17:05:21.411Z,7.33
2018-07-05T17:08:02.155Z,7.00
2018-07-05T17:10:36.314Z,8.23
2018-07-05T17:13:16.249Z,7.60
2018-07-05T17:15:56.301Z,7.27
2018-07-05T17:18:36.846Z,6.70
2018-07-05T17:21:16.977Z,6.40
2018-07-05T17:23:56.956Z,6.70
2018-07-05T17:26:37.661Z,6.87
2018-07-05T17:29:17.396Z,7.10
2018-07-05T17:31:57.497Z,7.77
2018-07-05T17:34:37.340Z,7.83
2018-07-05T17:37:17.228Z,6.67
2018-07-05T17:39:57.060Z,7.50
2018-07-05T17:42:36.918Z,7.77
2018-07-05T17:45:17.060Z,7.27
2018-07-05T17:47:57.116Z,7.53
2018-07-05T17:50:37.072Z,6.63
2018-07-05T17:53:17.855Z,6.47
2018-07-05T17:55:57.803Z,6.37
2018-07-05T17:58:37.773Z,5.80
2018-07-05T18:01:17.707Z,6.90
2018-07-05T18:03:57.524Z,6.33
2018-07-05T18:06:37.335Z,6.40
2018-07-05T18:09:20.760Z,7.30
2018-07-05T18:12:00.566Z,6.60
2018-07-05T18:14:40.359Z,6.87
2018-07-05T18:17:20.549Z,6.57
2018-07-05T18:20:00.436Z,6.27
2018-07-05T18:22:34.562Z,6.10
2018-07-05T18:25:08.567Z,6.07
2018-07-05T18:27:49.027Z,5.90
2018-07-05T18:30:28.718Z,6.00
2018-07-05T18:33:08.612Z,4.67
2018-07-05T18:35:48.674Z,4.70
2018-07-05T18:38:22.722Z,5.10
2018-07-05T18:41:03.220Z,4.23
2018-07-05T18:43:42.988Z,3.83
2018-07-05T18:46:23.300Z,5.80
2018-07-05T18:49:03.056Z,4.70
2018-07-05T18:51:43.094Z,5.10
2018-07-05T18:54:23.009Z,4.87
2018-07-05T18:56:56.807Z,5.17
2018-07-05T18:59:36.605Z,4.23
2018-07-05T19:02:16.438Z,5.00
2018-07-05T19:04:56.130Z,5.23
2018-07-05T19:07:35.811Z,5.03
2018-07-05T19:10:15.552Z,5.13
2018-07-05T19:12:55.198Z,5.17
2018-07-05T19:15:34.772Z,5.90
2018-07-05T19:18:14.396Z,5.67
2018-07-05T19:20:54.014Z,6.67
2018-07-05T19:23:33.906Z,6.47
2018-07-05T19:26:13.686Z,6.17
2018-07-05T19:28:53.525Z,6.63
2018-07-05T19:31:33.281Z,6.37
2018-07-05T19:34:13.191Z,6.03
2018-07-05T19:36:46.894Z,6.00
2018-07-05T19:39:26.565Z,5.80
2018-07-05T19:42:06.268Z,7.30
2018-07-05T19:44:39.902Z,6.70
2018-07-05T19:47:19.699Z,7.37
2018-07-05T19:49:59.546Z,6.70
2018-07-05T19:52:39.488Z,6.53
2018-07-05T19:55:19.238Z,6.00
2018-07-05T19:57:59.128Z,6.77
2018-07-05T20:00:39.201Z,6.70
2018-07-05T20:03:18.646Z,6.40
2018-07-05T20:05:58.590Z,5.93
2018-07-05T20:08:38.310Z,6.17
2018-07-05T20:11:18.093Z,6.97
2018-07-05T20:13:57.921Z,6.30
2018-07-05T20:16:37.609Z,6.07
2018-07-05T20:19:17.149Z,6.23
2018-07-05T20:21:56.887Z,6.00
2018-07-05T20:24:36.461Z,6.67
2018-07-05T20:27:16.129Z,5.77
2018-07-05T20:29:55.663Z,5.43
2018-07-05T20:32:29.375Z,5.90
2018-07-05T20:35:02.993Z,5.63
2018-07-05T20:37:42.742Z,6.50
2018-07-05T20:40:22.327Z,6.03
2018-07-05T20:43:02.145Z,6.53
2018-07-05T20:45:41.899Z,6.07
2018-07-05T20:48:21.439Z,6.10
2018-07-05T20:51:01.142Z,5.63
2018-07-05T20:53:41.166Z,6.00
2018-07-05T20:56:21.043Z,6.10
2018-07-05T20:59:04.637Z,5.40
2018-07-05T21:01:44.122Z,5.80
2018-07-05T21:04:23.900Z,6.57
2018-07-05T21:07:03.639Z,6.70
2018-07-05T21:09:43.374Z,6.03
2018-07-05T21:12:22.945Z,5.93
2018-07-05T21:15:02.506Z,6.17
2018-07-05T21:17:41.991Z,7.10
2018-07-05T21:20:21.649Z,7.00
2018-07-05T21:23:01.221Z,6.20
2018-07-05T21:25:40.961Z,6.90
2018-07-05T21:28:20.936Z,6.50
2018-07-05T21:31:00.707Z,6.40
2018-07-05T21:33:40.374Z,6.77
2018-07-05T21:36:19.992Z,6.30
2018-07-05T21:38:59.858Z,6.97
2018-07-05T21:41:39.514Z,7.17
2018-07-05T21:44:19.322Z,7.40
2018-07-05T21:46:58.923Z,6.97
2018-07-05T21:49:39.638Z,6.60
2018-07-05T21:52:19.564Z,6.90
2018-07-05T21:54:59.402Z,7.30
2018-07-05T21:57:39.077Z,6.53
2018-07-05T22:00:18.717Z,7.00
2018-07-05T22:02:58.494Z,6.57
2018-07-05T22:05:32.124Z,7.40
2018-07-05T22:08:11.902Z,6.40
2018-07-05T22:10:51.518Z,7.27
2018-07-05T22:13:31.306Z,7.10
2018-07-05T22:16:11.360Z,6.97
2018-07-05T22:18:56.385Z,7.07
2018-07-05T22:21:40.173Z,6.70
2018-07-05T22:24:25.387Z,6.73
2018-07-05T22:27:05.042Z,5.53
2018-07-05T22:29:50.617Z,6.03
2018-07-05T22:32:30.341Z,5.80
2018-07-05T22:35:04.058Z,6.90
2018-07-05T22:37:43.946Z,6.90
2018-07-05T22:40:23.658Z,7.60
2018-07-05T22:43:03.182Z,6.90
2018-07-05T22:45:42.889Z,6.77
2018-07-05T22:48:22.470Z,7.10
2018-07-05T22:50:56.098Z,6.77
2018-07-05T22:53:36.018Z,6.57
2018-07-05T22:56:15.587Z,7.10
2018-07-05T22:58:58.986Z,7.57
2018-07-05T23:01:38.571Z,7.63
2018-07-05T23:04:18.185Z,7.17
2018-07-05T23:06:51.854Z,7.23
2018-07-05T23:09:31.589Z,7.90
2018-07-05T23:12:11.278Z,7.80
2018-07-05T23:14:51.067Z,7.57
2018-07-05T23:17:30.826Z,6.97
2018-07-05T23:20:10.422Z,6.80
2018-07-05T23:22:50.332Z,7.37
2018-07-05T23:25:29.908Z,5.73
2018-07-05T23:28:09.614Z,5.80
2018-07-05T23:30:49.359Z,5.07
2018-07-05T23:33:29.098Z,5.77
2018-07-05T23:36:08.711Z,6.33
2018-07-05T23:38:48.263Z,5.80
2018-07-05T23:41:27.751Z,5.57
2018-07-05T23:44:07.534Z,5.33
2018-07-05T23:46:47.292Z,6.00
2018-07-05T23:49:27.036Z,6.17
2018-07-05T23:52:06.774Z,6.93
2018-07-05T23:54:46.457Z,7.50
2018-07-05T23:57:26.046Z,6.90
